Terminal Aerodrome Forecast
Issued by NWS North Platte, NE

Home | Current Version | Previous Version | Text Only | Print | Product List | Glossary On
Versions: 1 2 3 4 5 6 7 8 9 10 11 12 13 14 15 16 17
840
FTUS43 KLBF 110525 CCA
TAFVTN
TAF COR
KVTN 110525Z 1106/1206 01008KT P6SM OVC008
     FM111500 17005KT P6SM OVC012
     FM111800 21007KT P6SM SCT025 BKN120
     FM112300 33010KT P6SM BKN120
     FM120200 01008KT P6SM OVC015=

USA.gov is the U.S. government's official web portal to all federal, state and local government web resources and services.